Time,TemperatureF,DewpointF,PressureIn,WindDirection,WindDirectionDegrees,WindSpeedMPH,WindSpeedGustMPH,Humidity,HourlyPrecipIn,Conditions,Clouds,dailyrainin,SolarRadiationWatts/m^2,SoftwareType,DateUTC
2013-11-07 00:13:00,30.0,30.0,-100.00,SE,140,2.0,3.0,100,0.00,,,0.00,0.000000,,2013-11-07 06:13:00,
2013-11-07 00:23:00,30.0,30.0,-100.00,SE,140,2.0,3.0,100,0.00,,,0.00,0.000000,,2013-11-07 06:23:00,
2013-11-07 00:32:00,30.0,30.0,-100.00,SE,140,2.0,3.0,100,0.00,,,0.00,0.000000,,2013-11-07 06:32:00,
2013-11-07 00:42:00,30.0,30.0,-100.00,SE,140,2.0,3.0,100,0.00,,,0.00,0.000000,,2013-11-07 06:42:00,
2013-11-07 01:12:00,32.0,32.0,-100.00,SW,225,3.0,6.0,99,0.00,,,0.00,0.000000,,2013-11-07 07:12:00,
2013-11-07 01:22:00,32.0,32.0,-100.00,SW,225,3.0,6.0,99,0.00,,,0.00,0.000000,,2013-11-07 07:22:00,
2013-11-07 01:32:00,32.0,32.0,-100.00,SW,225,3.0,6.0,99,0.00,,,0.00,0.000000,,2013-11-07 07:32:00,
2013-11-07 01:42:00,32.0,32.0,-100.00,SW,225,3.0,6.0,99,0.00,,,0.00,0.000000,,2013-11-07 07:42:00,
2013-11-07 02:11:00,31.0,30.0,-100.00,SW,236,1.0,6.0,96,0.00,,,0.00,0.000000,,2013-11-07 08:11:00,
2013-11-07 02:22:00,31.0,30.0,-100.00,SW,236,1.0,6.0,96,0.00,,,0.00,0.000000,,2013-11-07 08:22:00,
2013-11-07 02:32:00,31.0,30.0,-100.00,SW,236,1.0,6.0,96,0.00,,,0.00,0.000000,,2013-11-07 08:32:00,
2013-11-07 02:42:00,31.0,30.0,-100.00,SW,236,1.0,6.0,96,0.00,,,0.00,0.000000,,2013-11-07 08:42:00,
2013-11-07 03:22:00,29.0,29.0,-100.00,North,355,0.0,2.0,100,0.00,,,0.00,0.000000,,2013-11-07 09:22:00,
2013-11-07 03:33:00,29.0,29.0,-100.00,North,355,0.0,2.0,100,0.00,,,0.00,0.000000,,2013-11-07 09:33:00,
2013-11-07 03:42:00,29.0,29.0,-100.00,North,355,0.0,2.0,100,0.00,,,0.00,0.000000,,2013-11-07 09:42:00,
2013-11-07 04:13:00,29.0,29.0,-100.00,NNW,334,0.0,3.0,100,0.00,,,0.00,0.000000,,2013-11-07 10:13:00,
2013-11-07 04:23:00,29.0,29.0,-100.00,NNW,334,0.0,3.0,100,0.00,,,0.00,0.000000,,2013-11-07 10:23:00,
2013-11-07 04:33:00,29.0,29.0,-100.00,NNW,334,0.0,3.0,100,0.00,,,0.00,0.000000,,2013-11-07 10:33:00,
2013-11-07 04:42:00,29.0,29.0,-100.00,NNW,334,0.0,3.0,100,0.00,,,0.00,0.000000,,2013-11-07 10:42:00,
2013-11-07 05:12:00,30.0,30.0,-100.00,SW,226,1.0,3.0,100,0.00,,,0.00,0.000000,,2013-11-07 11:12:00,
2013-11-07 05:22:00,30.0,30.0,-100.00,SW,226,1.0,3.0,100,0.00,,,0.00,0.000000,,2013-11-07 11:22:00,
2013-11-07 05:43:00,30.0,30.0,-100.00,SW,226,1.0,3.0,100,0.00,,,0.00,0.000000,,2013-11-07 11:43:00,
2013-11-07 06:12:00,29.0,29.0,-100.00,WSW,240,1.0,5.0,100,0.00,,,0.00,0.000000,,2013-11-07 12:12:00,
2013-11-07 06:22:00,29.0,29.0,-100.00,WSW,240,1.0,5.0,100,0.00,,,0.00,0.000000,,2013-11-07 12:22:00,
2013-11-07 06:32:00,29.0,29.0,-100.00,WSW,240,1.0,5.0,100,0.00,,,0.00,0.000000,,2013-11-07 12:32:00,
2013-11-07 06:42:00,29.0,29.0,-100.00,WSW,240,1.0,5.0,100,0.00,,,0.00,0.000000,,2013-11-07 12:42:00,
2013-11-07 07:12:00,29.0,29.0,-100.00,WSW,244,2.0,5.0,99,0.00,,,0.00,0.000000,,2013-11-07 13:12:00,
2013-11-07 07:21:00,29.0,29.0,-100.00,WSW,244,2.0,5.0,99,0.00,,,0.00,0.000000,,2013-11-07 13:21:00,
2013-11-07 07:32:00,29.0,29.0,-100.00,WSW,244,2.0,5.0,99,0.00,,,0.00,0.000000,,2013-11-07 13:32:00,
2013-11-07 07:42:00,29.0,29.0,-100.00,WSW,244,2.0,5.0,99,0.00,,,0.00,0.000000,,2013-11-07 13:42:00,
2013-11-07 08:12:00,30.0,29.0,-100.00,WSW,243,2.0,5.0,97,0.00,,,0.00,12.000000,,2013-11-07 14:12:00,
2013-11-07 08:22:00,30.0,29.0,-100.00,WSW,243,2.0,5.0,97,0.00,,,0.00,12.000000,,2013-11-07 14:22:00,
2013-11-07 08:32:00,30.0,29.0,-100.00,WSW,243,2.0,5.0,97,0.00,,,0.00,12.000000,,2013-11-07 14:32:00,
2013-11-07 08:42:00,30.0,29.0,-100.00,WSW,243,2.0,5.0,97,0.00,,,0.00,12.000000,,2013-11-07 14:42:00,
2013-11-07 09:11:00,37.0,33.0,-100.00,NW,304,3.0,7.0,85,0.00,,,0.00,117.000000,,2013-11-07 15:11:00,
2013-11-07 09:22:00,37.0,33.0,-100.00,NW,304,3.0,7.0,85,0.00,,,0.00,117.000000,,2013-11-07 15:22:00,
2013-11-07 09:33:00,37.0,33.0,-100.00,NW,304,3.0,7.0,85,0.00,,,0.00,117.000000,,2013-11-07 15:33:00,
2013-11-07 09:43:00,37.0,33.0,-100.00,NW,304,3.0,7.0,85,0.00,,,0.00,117.000000,,2013-11-07 15:43:00,
2013-11-07 10:13:00,41.0,32.0,-100.00,NW,315,6.0,13.0,69,0.00,,,0.00,366.000000,,2013-11-07 16:13:00,
2013-11-07 10:23:00,41.0,32.0,-100.00,NW,315,6.0,13.0,69,0.00,,,0.00,366.000000,,2013-11-07 16:23:00,
2013-11-07 10:33:00,41.0,32.0,-100.00,NW,315,6.0,13.0,69,0.00,,,0.00,366.000000,,2013-11-07 16:33:00,
2013-11-07 10:42:00,41.0,32.0,-100.00,NW,315,6.0,13.0,69,0.00,,,0.00,366.000000,,2013-11-07 16:42:00,
2013-11-07 11:12:00,43.0,29.0,-100.00,NW,320,9.0,18.0,58,0.00,,,0.00,527.000000,,2013-11-07 17:12:00,
2013-11-07 11:22:00,43.0,29.0,-100.00,NW,320,9.0,18.0,58,0.00,,,0.00,527.000000,,2013-11-07 17:22:00,
2013-11-07 11:33:00,43.0,29.0,-100.00,NW,320,9.0,18.0,58,0.00,,,0.00,527.000000,,2013-11-07 17:33:00,
2013-11-07 11:43:00,43.0,29.0,-100.00,NW,320,9.0,18.0,58,0.00,,,0.00,527.000000,,2013-11-07 17:43:00,
2013-11-07 12:23:00,45.0,28.0,-100.00,NW,325,9.0,17.0,51,0.00,,,0.00,634.000000,,2013-11-07 18:23:00,
2013-11-07 12:32:00,45.0,28.0,-100.00,NW,325,9.0,17.0,51,0.00,,,0.00,634.000000,,2013-11-07 18:32:00,
2013-11-07 12:42:00,45.0,28.0,-100.00,NW,325,9.0,17.0,51,0.00,,,0.00,634.000000,,2013-11-07 18:42:00,
2013-11-07 13:21:00,48.0,27.0,-100.00,NW,312,7.0,17.0,44,0.00,,,0.00,681.000000,,2013-11-07 19:21:00,
2013-11-07 13:32:00,48.0,27.0,-100.00,NW,312,7.0,17.0,44,0.00,,,0.00,681.000000,,2013-11-07 19:32:00,
2013-11-07 13:42:00,48.0,27.0,-100.00,NW,312,7.0,17.0,44,0.00,,,0.00,681.000000,,2013-11-07 19:42:00,
2013-11-07 14:22:00,50.0,27.0,-100.00,NW,325,6.0,13.0,40,0.00,,,0.00,648.000000,,2013-11-07 20:22:00,
2013-11-07 14:32:00,50.0,27.0,-100.00,NW,325,6.0,13.0,40,0.00,,,0.00,648.000000,,2013-11-07 20:32:00,
2013-11-07 14:42:00,50.0,27.0,-100.00,NW,325,6.0,13.0,40,0.00,,,0.00,648.000000,,2013-11-07 20:42:00,
2013-11-07 15:22:00,50.0,24.0,-100.00,NW,312,5.0,12.0,36,0.00,,,0.00,554.000000,,2013-11-07 21:22:00,
2013-11-07 15:34:00,50.0,24.0,-100.00,NW,312,5.0,12.0,36,0.00,,,0.00,554.000000,,2013-11-07 21:34:00,
2013-11-07 15:43:00,50.0,24.0,-100.00,NW,312,5.0,12.0,36,0.00,,,0.00,554.000000,,2013-11-07 21:43:00,
2013-11-07 16:23:00,50.0,24.0,-100.00,NW,311,4.0,11.0,36,0.00,,,0.00,402.000000,,2013-11-07 22:23:00,
2013-11-07 16:33:00,50.0,24.0,-100.00,NW,311,4.0,11.0,36,0.00,,,0.00,402.000000,,2013-11-07 22:33:00,
2013-11-07 16:43:00,50.0,24.0,-100.00,NW,311,4.0,11.0,36,0.00,,,0.00,402.000000,,2013-11-07 22:43:00,
2013-11-07 17:22:00,46.0,24.0,-100.00,NW,312,2.0,8.0,41,0.00,,,0.00,197.000000,,2013-11-07 23:22:00,
2013-11-07 17:34:00,46.0,24.0,-100.00,NW,312,2.0,8.0,41,0.00,,,0.00,197.000000,,2013-11-07 23:34:00,
2013-11-07 17:43:00,46.0,24.0,-100.00,NW,312,2.0,8.0,41,0.00,,,0.00,197.000000,,2013-11-07 23:43:00,
2013-11-07 18:22:00,38.0,24.0,-100.00,WNW,284,1.0,3.0,57,0.00,,,0.00,6.000000,,2013-11-08 00:22:00,
2013-11-07 18:32:00,38.0,24.0,-100.00,WNW,284,1.0,3.0,57,0.00,,,0.00,6.000000,,2013-11-08 00:32:00,
2013-11-07 18:42:00,38.0,24.0,-100.00,WNW,284,1.0,3.0,57,0.00,,,0.00,6.000000,,2013-11-08 00:42:00,
2013-11-07 19:12:00,34.0,29.0,-100.00,SE,124,0.0,3.0,81,0.00,,,0.00,0.000000,,2013-11-08 01:12:00,
2013-11-07 19:22:00,34.0,29.0,-100.00,SE,124,0.0,3.0,81,0.00,,,0.00,0.000000,,2013-11-08 01:22:00,
2013-11-07 19:32:00,34.0,29.0,-100.00,SE,124,0.0,3.0,81,0.00,,,0.00,0.000000,,2013-11-08 01:32:00,
2013-11-07 19:42:00,34.0,29.0,-100.00,SE,124,0.0,3.0,81,0.00,,,0.00,0.000000,,2013-11-08 01:42:00,
2013-11-07 20:12:00,32.0,29.0,-100.00,SSW,209,2.0,3.0,87,0.00,,,0.00,0.000000,,2013-11-08 02:12:00,
2013-11-07 20:21:00,32.0,29.0,-100.00,SSW,209,2.0,3.0,87,0.00,,,0.00,0.000000,,2013-11-08 02:21:00,
2013-11-07 20:32:00,32.0,29.0,-100.00,SSW,209,2.0,3.0,87,0.00,,,0.00,0.000000,,2013-11-08 02:32:00,
2013-11-07 20:42:00,32.0,29.0,-100.00,SSW,209,2.0,3.0,87,0.00,,,0.00,0.000000,,2013-11-08 02:42:00,
2013-11-07 21:11:00,31.0,30.0,-100.00,SW,214,0.0,3.0,95,0.00,,,0.00,0.000000,,2013-11-08 03:11:00,
2013-11-07 21:22:00,31.0,30.0,-100.00,SW,214,0.0,3.0,95,0.00,,,0.00,0.000000,,2013-11-08 03:22:00,
2013-11-07 21:34:00,31.0,30.0,-100.00,SW,214,0.0,3.0,95,0.00,,,0.00,0.000000,,2013-11-08 03:34:00,
2013-11-07 21:44:00,31.0,30.0,-100.00,SW,214,0.0,3.0,95,0.00,,,0.00,0.000000,,2013-11-08 03:44:00,
2013-11-07 22:13:00,31.0,29.0,-100.00,SSW,195,2.0,3.0,94,0.00,,,0.00,0.000000,,2013-11-08 04:13:00,
2013-11-07 22:23:00,31.0,29.0,-100.00,SSW,195,2.0,3.0,94,0.00,,,0.00,0.000000,,2013-11-08 04:23:00,
2013-11-07 22:34:00,31.0,29.0,-100.00,SSW,195,2.0,3.0,94,0.00,,,0.00,0.000000,,2013-11-08 04:34:00,
2013-11-07 22:43:00,31.0,29.0,-100.00,SSW,195,2.0,3.0,94,0.00,,,0.00,0.000000,,2013-11-08 04:43:00,